createdAt,value
2023-07-15T00:00:56.032Z,6.50
2023-07-15T00:01:57.679Z,6.65
2023-07-15T00:02:59.342Z,7.28
2023-07-15T00:04:01.212Z,7.43
2023-07-15T00:05:02.809Z,6.85
2023-07-15T00:06:04.470Z,6.05
2023-07-15T00:07:06.274Z,6.73
2023-07-15T00:08:07.881Z,6.38
2023-07-15T00:09:09.504Z,6.70
2023-07-15T00:10:11.136Z,6.57
2023-07-15T00:11:16.361Z,7.45
2023-07-15T00:12:17.954Z,6.50
2023-07-15T00:13:19.951Z,6.90
2023-07-15T00:14:22.987Z,6.40
2023-07-15T00:15:24.530Z,6.78
2023-07-15T00:16:27.126Z,6.15
2023-07-15T00:17:28.833Z,6.80
2023-07-15T00:18:30.487Z,6.18
2023-07-15T00:19:32.118Z,5.95
2023-07-15T00:20:33.776Z,6.85
2023-07-15T00:21:35.545Z,6.75
2023-07-15T00:22:37.285Z,5.90
2023-07-15T00:23:38.910Z,6.85
2023-07-15T00:24:40.477Z,6.50
2023-07-15T00:25:42.058Z,7.10
2023-07-15T00:26:43.721Z,6.38
2023-07-15T00:27:45.824Z,6.77
2023-07-15T00:28:47.690Z,6.60
2023-07-15T00:29:49.228Z,7.03
2023-07-15T00:30:52.213Z,6.60
2023-07-15T00:31:53.935Z,7.15
2023-07-15T00:32:55.550Z,6.93
2023-07-15T00:33:57.155Z,7.07
2023-07-15T00:34:58.815Z,6.90
2023-07-15T00:36:00.390Z,6.95
2023-07-15T00:37:01.969Z,6.93
2023-07-15T00:38:03.582Z,7.40
2023-07-15T00:39:05.134Z,6.70
2023-07-15T00:40:07.295Z,6.97
2023-07-15T00:41:32.100Z,6.97
2023-07-15T00:42:42.569Z,6.90
2023-07-15T00:43:53.408Z,6.57
2023-07-15T00:44:54.891Z,6.75
2023-07-15T00:46:15.237Z,7.07
2023-07-15T00:47:17.132Z,6.60
2023-07-15T00:48:21.924Z,6.45
2023-07-15T00:49:24.386Z,6.77
2023-07-15T00:50:25.926Z,6.40
2023-07-15T00:51:28.169Z,6.68
2023-07-15T00:52:29.854Z,7.15
2023-07-15T00:53:31.444Z,6.45
2023-07-15T00:54:35.386Z,6.32
2023-07-15T00:55:37.913Z,7.30
2023-07-15T00:56:39.875Z,7.05
2023-07-15T00:57:42.016Z,6.68
2023-07-15T00:58:43.711Z,6.55
2023-07-15T00:59:46.165Z,7.00
2023-07-15T01:00:47.763Z,6.40
2023-07-15T01:01:49.387Z,6.90
2023-07-15T01:02:51.356Z,7.15
2023-07-15T01:03:52.994Z,6.72
2023-07-15T01:04:54.688Z,6.28
2023-07-15T01:05:56.850Z,6.32
2023-07-15T01:06:58.469Z,6.65
2023-07-15T01:08:00.109Z,6.95
2023-07-15T01:09:35.525Z,5.72
2023-07-15T01:10:37.182Z,6.00
2023-07-15T01:11:38.681Z,6.05
2023-07-15T01:12:40.212Z,6.13
2023-07-15T01:13:41.774Z,6.93
2023-07-15T01:14:43.329Z,6.60
2023-07-15T01:15:44.902Z,6.88
2023-07-15T01:16:46.475Z,6.63
2023-07-15T01:17:48.012Z,5.68
2023-07-15T01:18:49.605Z,6.25
2023-07-15T01:19:51.129Z,6.30
2023-07-15T01:20:52.714Z,5.63
2023-07-15T01:21:54.572Z,6.10
2023-07-15T01:22:56.231Z,6.25
2023-07-15T01:23:57.810Z,6.63
2023-07-15T01:24:59.308Z,6.10
2023-07-15T01:26:00.834Z,6.18
2023-07-15T01:27:03.079Z,6.38
2023-07-15T01:28:04.732Z,6.57
2023-07-15T01:29:06.321Z,6.70
2023-07-15T01:30:08.119Z,6.90
2023-07-15T01:31:09.731Z,6.17
2023-07-15T01:32:11.273Z,6.25
2023-07-15T01:33:12.814Z,6.85
2023-07-15T01:34:14.361Z,6.40
2023-07-15T01:35:16.211Z,5.90
2023-07-15T01:36:17.788Z,6.40
2023-07-15T01:37:19.343Z,6.68
2023-07-15T01:38:20.916Z,6.32
2023-07-15T01:39:22.456Z,6.90
2023-07-15T01:40:23.975Z,6.07
2023-07-15T01:41:25.528Z,6.43
2023-07-15T01:42:27.102Z,6.50
2023-07-15T01:43:28.801Z,6.80
2023-07-15T01:44:30.345Z,6.50
2023-07-15T01:45:32.079Z,5.90
2023-07-15T01:46:33.670Z,6.72
2023-07-15T01:47:35.378Z,6.32
2023-07-15T01:48:37.545Z,6.63
2023-07-15T01:49:39.076Z,6.28
2023-07-15T01:50:40.865Z,5.78
2023-07-15T01:51:42.449Z,6.90
2023-07-15T01:52:44.091Z,6.82
2023-07-15T01:53:45.666Z,6.60
2023-07-15T01:54:47.347Z,6.43
2023-07-15T01:55:48.912Z,6.60
2023-07-15T01:56:50.604Z,6.32
2023-07-15T01:57:52.172Z,6.63
2023-07-15T01:58:53.750Z,7.80
2023-07-15T01:59:55.381Z,6.45
2023-07-15T02:02:34.821Z,6.00
2023-07-15T02:03:36.709Z,6.18
2023-07-15T02:04:38.372Z,6.25
2023-07-15T02:05:39.974Z,6.43
2023-07-15T02:06:41.498Z,5.72
2023-07-15T02:07:43.191Z,6.30
2023-07-15T02:08:44.773Z,6.15
2023-07-15T02:09:46.296Z,6.43
2023-07-15T02:10:48.532Z,6.78
2023-07-15T02:11:50.061Z,5.85
2023-07-15T02:12:51.811Z,6.10
2023-07-15T02:13:53.434Z,5.90
2023-07-15T02:14:55.174Z,6.45
2023-07-15T02:15:56.644Z,6.22
2023-07-15T02:16:58.249Z,6.32
2023-07-15T02:17:59.934Z,6.40
2023-07-15T02:19:01.536Z,6.50
2023-07-15T02:20:03.274Z,6.63
2023-07-15T02:21:04.828Z,6.60
2023-07-15T02:22:06.651Z,6.22
2023-07-15T02:23:10.270Z,6.10
2023-07-15T02:24:11.906Z,6.47
2023-07-15T02:25:13.392Z,6.78
2023-07-15T02:26:15.168Z,6.30
2023-07-15T02:27:16.981Z,6.40
2023-07-15T02:28:18.473Z,6.53
2023-07-15T02:29:20.047Z,5.95
2023-07-15T02:30:21.552Z,7.38
2023-07-15T02:31:23.149Z,6.10
2023-07-15T02:32:40.782Z,6.75
2023-07-15T02:33:42.853Z,6.60
2023-07-15T02:34:44.489Z,6.57
2023-07-15T02:35:46.071Z,6.32
2023-07-15T02:36:47.600Z,6.10
2023-07-15T02:37:49.133Z,6.82
2023-07-15T02:38:50.638Z,6.38
2023-07-15T02:39:52.235Z,6.63
2023-07-15T02:40:55.161Z,6.10
2023-07-15T02:41:56.717Z,6.50
2023-07-15T02:42:58.271Z,6.32
2023-07-15T02:43:59.824Z,6.40
2023-07-15T02:45:01.997Z,6.88
2023-07-15T02:46:03.683Z,6.78
2023-07-15T02:47:05.396Z,6.35
2023-07-15T02:48:07.106Z,6.20
2023-07-15T02:49:10.392Z,6.00
2023-07-15T03:09:09.096Z,7.30
2023-07-15T03:10:11.000Z,6.45
2023-07-15T03:11:12.729Z,7.07
2023-07-15T03:12:14.566Z,6.97
2023-07-15T03:13:16.421Z,6.82
2023-07-15T03:14:18.053Z,6.97
2023-07-15T03:15:19.967Z,7.00
2023-07-15T03:16:21.688Z,6.50
2023-07-15T03:17:23.502Z,7.57
2023-07-15T03:20:07.119Z,6.90
2023-07-15T03:21:09.286Z,5.95
2023-07-15T03:22:10.926Z,6.78
2023-07-15T03:23:12.698Z,7.13
2023-07-15T03:24:14.439Z,6.63
2023-07-15T03:25:18.418Z,6.93
2023-07-15T03:26:20.293Z,7.47
2023-07-15T03:27:21.866Z,6.70
2023-07-15T03:28:23.766Z,6.82
2023-07-15T03:29:25.405Z,6.35
2023-07-15T03:30:27.110Z,6.47
2023-07-15T03:31:28.799Z,5.93
2023-07-15T03:32:30.594Z,7.00
2023-07-15T03:33:32.339Z,6.97
2023-07-15T03:34:34.018Z,5.80
2023-07-15T03:35:35.643Z,6.53
2023-07-15T03:36:37.234Z,6.67
2023-07-15T03:37:40.211Z,7.13
2023-07-15T03:38:41.803Z,6.53
2023-07-15T03:39:44.007Z,7.35
2023-07-15T03:40:45.896Z,7.72
2023-07-15T03:41:47.552Z,7.47
2023-07-15T03:42:49.206Z,7.28
2023-07-15T03:43:50.924Z,6.93
2023-07-15T03:44:53.133Z,7.40
2023-07-15T03:45:57.358Z,6.97
2023-07-15T03:46:59.156Z,7.30
2023-07-15T03:48:00.918Z,6.68
2023-07-15T03:49:02.665Z,7.07
2023-07-15T03:50:04.922Z,7.43
2023-07-15T03:51:07.057Z,6.85
2023-07-15T03:52:08.643Z,7.50
2023-07-15T04:09:49.582Z,7.97
2023-07-15T04:10:51.096Z,8.55
2023-07-15T04:11:52.856Z,8.40
2023-07-15T04:12:54.447Z,8.48
2023-07-15T04:13:55.997Z,8.23
2023-07-15T04:14:57.586Z,8.02
2023-07-15T04:15:59.179Z,8.13
2023-07-15T04:17:00.891Z,14.35
2023-07-15T04:18:02.557Z,11.65
2023-07-15T04:19:04.212Z,8.48
2023-07-15T04:20:06.149Z,9.07
2023-07-15T04:21:07.938Z,11.15
2023-07-15T04:22:09.553Z,9.18
2023-07-15T04:23:11.172Z,9.05
2023-07-15T04:24:12.914Z,8.80
2023-07-15T04:25:14.572Z,8.15
2023-07-15T04:26:22.461Z,8.70
2023-07-15T04:27:23.990Z,8.43
2023-07-15T04:28:25.642Z,8.40
2023-07-15T04:29:27.164Z,8.98
2023-07-15T04:30:28.805Z,8.88
2023-07-15T04:31:30.323Z,8.20
2023-07-15T04:32:32.176Z,9.32
2023-07-15T04:33:33.772Z,8.70
2023-07-15T04:34:35.292Z,8.20
2023-07-15T04:35:36.959Z,8.63
2023-07-15T04:36:38.532Z,8.77
2023-07-15T04:37:40.082Z,8.63
2023-07-15T04:38:42.159Z,8.32
2023-07-15T04:39:43.853Z,7.95
2023-07-15T04:40:45.427Z,8.90
2023-07-15T04:41:47.051Z,8.60
2023-07-15T04:42:48.711Z,9.23
2023-07-15T04:43:50.204Z,8.40
2023-07-15T04:44:51.753Z,9.30
2023-07-15T04:45:53.450Z,8.77
2023-07-15T04:46:55.105Z,9.52
2023-07-15T04:47:56.870Z,9.57
2023-07-15T04:48:58.429Z,9.63
2023-07-15T04:49:59.921Z,9.32
2023-07-15T04:51:01.545Z,9.68
2023-07-15T04:52:03.125Z,10.38
2023-07-15T04:53:04.664Z,9.45
2023-07-15T04:54:06.144Z,9.07
2023-07-15T04:55:07.916Z,9.00
2023-07-15T04:56:09.565Z,8.98
2023-07-15T04:57:11.119Z,8.85
2023-07-15T04:58:13.179Z,9.43
2023-07-15T04:59:14.749Z,8.90
2023-07-15T05:00:16.354Z,9.20
2023-07-15T05:01:18.062Z,9.13
2023-07-15T05:02:19.765Z,9.02
2023-07-15T05:03:21.366Z,9.63
2023-07-15T05:04:22.920Z,9.70
2023-07-15T05:05:24.560Z,10.33
2023-07-15T05:06:26.103Z,9.60
2023-07-15T05:07:27.600Z,10.13
2023-07-15T05:08:29.351Z,9.50
2023-07-15T05:09:30.993Z,9.48
2023-07-15T05:10:34.024Z,10.00
2023-07-15T05:11:35.608Z,9.38
2023-07-15T05:12:37.156Z,9.32
2023-07-15T05:13:38.872Z,9.55
2023-07-15T05:14:40.432Z,9.30
2023-07-15T05:15:42.441Z,9.37
2023-07-15T05:16:44.504Z,9.95
2023-07-15T05:17:46.251Z,9.10
2023-07-15T05:18:47.924Z,8.65
2023-07-15T05:19:49.449Z,9.05
2023-07-15T05:20:50.902Z,9.05
2023-07-15T05:21:55.495Z,9.15
2023-07-15T05:22:57.232Z,8.45
2023-07-15T05:23:59.055Z,8.73
2023-07-15T05:25:00.610Z,8.98
2023-07-15T05:26:02.869Z,8.60
2023-07-15T05:27:04.745Z,9.40
2023-07-15T05:28:06.481Z,8.15
2023-07-15T05:29:08.188Z,8.63
2023-07-15T05:30:10.222Z,8.68
2023-07-15T05:31:11.940Z,8.70
2023-07-15T05:32:13.868Z,8.45
2023-07-15T05:33:15.525Z,8.35
2023-07-15T05:34:17.840Z,8.50
2023-07-15T05:35:19.574Z,8.25
2023-07-15T05:36:21.133Z,9.00
2023-07-15T05:37:23.194Z,8.60
2023-07-15T05:38:25.533Z,8.68
2023-07-15T05:39:27.171Z,9.43
2023-07-15T05:40:28.868Z,8.52
2023-07-15T05:41:30.371Z,8.45
2023-07-15T05:42:32.086Z,8.25
2023-07-15T05:43:33.599Z,9.32
2023-07-15T05:44:35.215Z,8.82
2023-07-15T05:45:36.779Z,8.00
2023-07-15T05:46:38.859Z,8.03
2023-07-15T05:47:40.965Z,8.00
2023-07-15T05:48:42.763Z,8.93
2023-07-15T05:49:44.522Z,8.40
2023-07-15T05:50:46.907Z,8.85
2023-07-15T05:51:48.563Z,9.00
2023-07-15T05:52:50.070Z,8.93
2023-07-15T05:53:51.695Z,7.85
2023-07-15T05:54:53.287Z,9.13
2023-07-15T05:55:56.655Z,8.02
2023-07-15T05:56:58.553Z,8.57
2023-07-15T05:58:00.512Z,8.25
2023-07-15T05:59:02.068Z,8.80
2023-07-15T06:00:04.159Z,8.13
2023-07-15T06:01:05.987Z,7.45
2023-07-15T06:02:07.662Z,7.78
2023-07-15T06:03:09.946Z,8.52
2023-07-15T06:04:11.832Z,8.88
2023-07-15T06:05:13.971Z,8.13
2023-07-15T06:06:15.559Z,8.95
2023-07-15T06:07:17.132Z,8.40
2023-07-15T06:08:18.646Z,8.27
2023-07-15T06:09:20.145Z,8.52
2023-07-15T06:10:21.694Z,8.63
2023-07-15T06:11:23.282Z,9.43
2023-07-15T06:12:25.030Z,8.02
2023-07-15T06:13:29.385Z,8.07
2023-07-15T06:14:32.132Z,8.18
2023-07-15T06:15:33.661Z,7.88
2023-07-15T06:16:35.210Z,7.80
2023-07-15T06:17:36.769Z,8.77
2023-07-15T06:18:38.334Z,8.43
2023-07-15T06:19:40.627Z,7.88
2023-07-15T06:20:42.185Z,8.13
2023-07-15T06:21:44.310Z,8.35
2023-07-15T06:22:46.038Z,7.80
2023-07-15T06:23:47.603Z,8.13
2023-07-15T06:24:49.148Z,8.32
2023-07-15T06:25:50.724Z,8.48
2023-07-15T06:26:52.346Z,8.20
2023-07-15T06:27:53.963Z,8.47
2023-07-15T06:28:55.550Z,8.70
2023-07-15T06:29:57.111Z,8.35
2023-07-15T06:31:02.925Z,8.18
2023-07-15T06:32:04.770Z,7.47
2023-07-15T06:33:06.387Z,8.05
2023-07-15T06:34:08.032Z,8.05
2023-07-15T06:35:09.688Z,8.48
2023-07-15T06:36:11.367Z,8.18
2023-07-15T06:37:12.881Z,8.20
2023-07-15T06:38:14.400Z,8.47
2023-07-15T06:39:15.984Z,8.50
2023-07-15T06:40:18.118Z,8.18
2023-07-15T06:41:19.662Z,8.07
2023-07-15T06:42:21.272Z,8.30
2023-07-15T06:43:22.908Z,8.23
2023-07-15T06:44:24.654Z,8.45
2023-07-15T06:45:33.195Z,8.55
2023-07-15T06:46:34.861Z,8.35
2023-07-15T06:47:36.623Z,7.90
2023-07-15T06:48:38.255Z,8.03
2023-07-15T06:49:39.830Z,8.38
2023-07-15T06:50:41.772Z,8.60
2023-07-15T06:51:43.268Z,8.27
2023-07-15T06:52:44.778Z,8.15
2023-07-15T06:53:47.107Z,8.13
2023-07-15T06:54:48.785Z,8.52
2023-07-15T06:55:53.956Z,8.48
2023-07-15T06:57:00.273Z,8.85
2023-07-15T06:58:02.299Z,8.50
2023-07-15T06:59:03.811Z,10.30
2023-07-15T07:00:05.834Z,7.68
2023-07-15T07:01:07.477Z,8.18
2023-07-15T07:02:09.050Z,8.50
2023-07-15T07:03:10.580Z,8.73
2023-07-15T07:04:12.158Z,9.10
2023-07-15T07:05:15.785Z,7.80
2023-07-15T07:06:18.918Z,8.98
2023-07-15T07:07:20.553Z,9.10
2023-07-15T07:08:22.020Z,7.95
2023-07-15T07:09:23.654Z,8.30
2023-07-15T07:10:25.339Z,8.00
2023-07-15T07:11:26.915Z,7.95
2023-07-15T07:12:28.512Z,8.65
2023-07-15T07:13:30.305Z,8.02
2023-07-15T07:14:34.255Z,7.32
2023-07-15T07:15:36.436Z,8.00
2023-07-15T07:16:37.987Z,7.68
2023-07-15T07:17:39.676Z,7.55
2023-07-15T07:18:41.442Z,6.70
2023-07-15T07:19:43.149Z,7.20
2023-07-15T07:20:44.833Z,7.57
2023-07-15T07:21:46.388Z,7.30
2023-07-15T07:22:48.093Z,7.40
2023-07-15T07:23:49.687Z,7.85
2023-07-15T07:24:51.271Z,7.30
2023-07-15T07:25:52.882Z,7.65
2023-07-15T07:26:54.483Z,8.10
2023-07-15T07:27:55.982Z,7.03
2023-07-15T07:28:57.500Z,6.78
2023-07-15T07:29:59.186Z,7.30
2023-07-15T07:31:00.838Z,7.28
2023-07-15T07:32:02.436Z,7.07
2023-07-15T07:33:04.139Z,7.43
2023-07-15T07:34:05.868Z,6.75
2023-07-15T07:35:07.708Z,7.15
2023-07-15T07:36:09.308Z,7.38
2023-07-15T07:37:10.821Z,7.63
2023-07-15T07:38:12.350Z,7.75
2023-07-15T07:39:13.920Z,6.93
2023-07-15T07:40:15.510Z,6.80
2023-07-15T07:41:17.348Z,6.97
2023-07-15T07:42:19.296Z,7.32
2023-07-15T07:43:21.004Z,8.15
2023-07-15T07:44:23.031Z,7.85
2023-07-15T07:45:24.589Z,7.40
2023-07-15T07:46:26.226Z,7.38
2023-07-15T07:47:27.787Z,7.82
2023-07-15T07:48:29.516Z,7.32
2023-07-15T07:49:33.036Z,7.00
2023-07-15T07:50:36.779Z,8.07
2023-07-15T07:51:38.377Z,7.47
2023-07-15T07:52:39.927Z,8.05
2023-07-15T07:53:41.580Z,7.07
2023-07-15T07:54:43.232Z,7.70
2023-07-15T07:55:46.754Z,6.88
2023-07-15T07:56:48.669Z,7.40
2023-07-15T07:57:50.205Z,7.43
2023-07-15T07:58:54.404Z,7.45
2023-07-15T07:59:55.915Z,7.40
2023-07-15T08:00:57.474Z,7.43
2023-07-15T08:01:59.136Z,7.47
2023-07-15T08:03:00.743Z,7.78
2023-07-15T08:04:02.984Z,7.00
2023-07-15T08:05:04.811Z,6.80
2023-07-15T08:06:06.385Z,7.53
2023-07-15T08:07:07.927Z,9.25
2023-07-15T08:08:09.715Z,8.50
2023-07-15T08:09:11.332Z,7.85
2023-07-15T08:10:12.921Z,7.35
2023-07-15T08:11:14.722Z,8.33
2023-07-15T08:12:18.324Z,7.50
2023-07-15T08:13:20.959Z,8.13
2023-07-15T08:14:22.943Z,8.18
2023-07-15T08:15:24.916Z,8.18
2023-07-15T08:16:37.167Z,10.20
2023-07-15T08:17:39.031Z,9.38
2023-07-15T08:18:40.703Z,7.85
2023-07-15T08:19:42.438Z,7.90
2023-07-15T08:20:44.118Z,7.28
2023-07-15T08:21:45.664Z,7.73
2023-07-15T08:22:47.369Z,7.65
2023-07-15T08:23:49.006Z,8.73
2023-07-15T08:24:50.628Z,6.93
2023-07-15T08:25:53.245Z,7.78
2023-07-15T08:26:54.940Z,7.75
2023-07-15T08:27:56.823Z,8.40
2023-07-15T08:28:58.488Z,7.32
2023-07-15T08:30:00.191Z,7.80
2023-07-15T08:31:01.802Z,6.97
2023-07-15T08:32:03.444Z,7.20
2023-07-15T08:33:05.822Z,8.02
2023-07-15T08:34:07.503Z,7.47
2023-07-15T08:35:09.326Z,7.05
2023-07-15T08:36:11.058Z,7.65
2023-07-15T08:37:12.774Z,7.35
2023-07-15T08:38:14.392Z,7.95
2023-07-15T08:39:16.053Z,7.45
2023-07-15T08:40:18.462Z,7.93
2023-07-15T08:41:23.533Z,7.90
2023-07-15T08:42:25.161Z,8.83
2023-07-15T08:43:27.250Z,7.68
2023-07-15T08:44:28.886Z,7.88
2023-07-15T08:45:32.180Z,7.65
2023-07-15T08:46:34.127Z,7.85
2023-07-15T08:47:36.669Z,7.30
2023-07-15T08:48:39.707Z,7.57
2023-07-15T08:49:41.791Z,8.32
2023-07-15T08:50:44.136Z,7.57
2023-07-15T08:51:46.051Z,8.40
2023-07-15T08:52:47.567Z,9.03
2023-07-15T08:53:49.550Z,8.73
2023-07-15T08:54:53.684Z,9.30
2023-07-15T08:55:56.294Z,8.15
2023-07-15T08:56:57.993Z,8.55
2023-07-15T08:58:00.046Z,8.15
2023-07-15T08:59:02.491Z,8.55
2023-07-15T09:00:05.422Z,7.75
2023-07-15T09:01:06.933Z,7.45
2023-07-15T09:02:08.707Z,8.05
2023-07-15T09:03:10.340Z,8.53
2023-07-15T09:04:12.233Z,8.63
2023-07-15T09:05:13.867Z,8.23
2023-07-15T09:06:18.725Z,8.55
2023-07-15T09:07:30.834Z,8.13
2023-07-15T09:08:32.357Z,8.52
2023-07-15T09:09:34.562Z,7.47
2023-07-15T09:10:36.185Z,8.35
2023-07-15T09:11:38.277Z,8.13
2023-07-15T09:12:44.104Z,8.13
2023-07-15T09:13:45.673Z,9.30
2023-07-15T09:14:53.890Z,8.38
2023-07-15T09:15:56.751Z,8.43
2023-07-15T09:16:59.597Z,8.88
2023-07-15T09:18:01.217Z,8.75
2023-07-15T09:19:03.189Z,8.45
2023-07-15T09:20:14.908Z,8.30
2023-07-15T09:21:17.620Z,9.52
2023-07-15T09:22:19.792Z,8.98
2023-07-15T09:23:21.313Z,7.65
2023-07-15T09:24:23.130Z,8.53
2023-07-15T09:25:25.152Z,9.40
2023-07-15T09:27:29.776Z,8.93
2023-07-15T09:28:31.284Z,9.15
2023-07-15T09:29:33.072Z,9.20
2023-07-15T09:30:34.627Z,8.43
2023-07-15T09:31:39.413Z,8.45
2023-07-15T09:32:41.204Z,9.32
2023-07-15T09:33:42.792Z,8.65
2023-07-15T09:34:50.813Z,8.43
2023-07-15T09:35:52.410Z,8.82
2023-07-15T09:36:54.440Z,9.40
2023-07-15T09:37:56.079Z,9.23
2023-07-15T09:39:02.541Z,9.25
2023-07-15T09:40:08.160Z,9.40
2023-07-15T09:41:09.774Z,8.63
2023-07-15T09:42:11.396Z,9.00
2023-07-15T09:43:13.710Z,8.35
2023-07-15T09:44:15.252Z,9.05
2023-07-15T09:45:35.635Z,8.30
2023-07-15T09:46:38.109Z,7.63
2023-07-15T09:47:39.693Z,8.77
2023-07-15T09:48:41.370Z,8.52
2023-07-15T09:49:42.880Z,8.35
2023-07-15T09:50:44.695Z,8.30
2023-07-15T09:51:46.218Z,8.50
2023-07-15T09:52:47.793Z,8.88
2023-07-15T09:53:50.461Z,8.63
2023-07-15T09:54:52.492Z,8.25
2023-07-15T09:55:54.085Z,8.20
2023-07-15T09:57:00.278Z,8.65
2023-07-15T09:58:19.512Z,8.13
2023-07-15T09:59:26.171Z,9.15
2023-07-15T10:00:28.896Z,8.50
2023-07-15T10:01:33.667Z,7.63
2023-07-15T10:02:42.640Z,8.27
2023-07-15T10:03:48.259Z,8.27
2023-07-15T10:04:51.327Z,8.50
2023-07-15T10:05:53.275Z,7.45
2023-07-15T10:06:55.043Z,7.23
2023-07-15T10:07:56.851Z,6.88
2023-07-15T10:09:02.008Z,7.63
2023-07-15T10:10:05.450Z,8.32
2023-07-15T10:11:08.196Z,7.20
2023-07-15T10:12:09.873Z,8.23
2023-07-15T10:13:11.914Z,8.60
2023-07-15T10:14:14.017Z,7.50
2023-07-15T10:15:15.888Z,8.15
2023-07-15T10:16:17.743Z,7.15
2023-07-15T10:17:19.356Z,7.23
2023-07-15T10:18:21.161Z,7.55
2023-07-15T10:19:41.908Z,7.93
2023-07-15T10:20:56.948Z,8.18
2023-07-15T10:22:01.412Z,8.20
2023-07-15T10:23:03.456Z,7.43
2023-07-15T10:24:09.818Z,8.60
2023-07-15T10:25:12.083Z,6.72
2023-07-15T10:26:19.770Z,7.57
2023-07-15T10:27:21.303Z,7.20
2023-07-15T10:28:23.222Z,7.60
2023-07-15T10:29:25.113Z,7.47
2023-07-15T10:30:27.306Z,6.88
2023-07-15T10:31:29.927Z,7.05
2023-07-15T10:32:31.958Z,6.97
2023-07-15T10:33:34.912Z,7.53
2023-07-15T10:34:41.018Z,8.65
2023-07-15T10:35:42.769Z,7.55
2023-07-15T10:36:45.542Z,7.15
2023-07-15T10:37:47.245Z,7.43
2023-07-15T10:39:00.497Z,6.97
2023-07-15T10:40:02.107Z,7.63
2023-07-15T10:41:04.533Z,7.28
2023-07-15T10:42:16.574Z,7.78
2023-07-15T10:43:25.113Z,7.55
2023-07-15T10:44:26.763Z,7.40
2023-07-15T10:45:43.767Z,7.50
2023-07-15T10:46:46.276Z,7.13
2023-07-15T10:47:47.909Z,7.45
2023-07-15T10:48:49.428Z,7.38
2023-07-15T10:49:53.113Z,6.97
2023-07-15T10:50:55.472Z,7.03
2023-07-15T10:51:57.359Z,7.28
2023-07-15T10:53:18.805Z,7.03
2023-07-15T10:54:22.550Z,6.78
2023-07-15T10:55:24.149Z,7.03
2023-07-15T10:56:25.683Z,7.57
2023-07-15T10:57:32.839Z,7.07
2023-07-15T10:58:37.297Z,6.65
2023-07-15T10:59:40.298Z,6.93
2023-07-15T11:00:42.023Z,6.60
2023-07-15T11:01:46.797Z,7.22
2023-07-15T11:02:48.882Z,7.53
2023-07-15T11:03:50.552Z,7.15
2023-07-15T11:04:52.247Z,6.95
2023-07-15T11:06:03.257Z,6.68
2023-07-15T11:07:05.762Z,6.88
2023-07-15T11:08:07.573Z,6.80
2023-07-15T11:09:19.501Z,6.80
2023-07-15T11:10:32.238Z,6.70
2023-07-15T11:11:33.773Z,6.97
2023-07-15T11:12:35.460Z,6.63
2023-07-15T11:13:37.774Z,6.78
2023-07-15T11:14:43.179Z,6.40
2023-07-15T11:15:45.454Z,6.80
2023-07-15T11:16:47.514Z,6.28
2023-07-15T11:17:49.141Z,6.25
2023-07-15T11:18:50.869Z,6.68
2023-07-15T11:19:52.481Z,6.93
2023-07-15T11:20:55.310Z,6.30
2023-07-15T11:21:57.538Z,6.67
2023-07-15T11:22:59.110Z,6.78
2023-07-15T11:24:01.032Z,7.22
2023-07-15T11:25:03.194Z,6.70
2023-07-15T11:26:08.985Z,7.15
2023-07-15T11:27:10.714Z,7.13
2023-07-15T11:28:12.357Z,7.35
2023-07-15T11:29:20.758Z,6.60
2023-07-15T11:30:22.375Z,6.60
2023-07-15T11:31:24.180Z,6.57
2023-07-15T11:32:28.496Z,6.13
2023-07-15T11:33:30.610Z,6.70
2023-07-15T11:34:32.200Z,6.68
2023-07-15T11:35:34.573Z,6.57
2023-07-15T11:36:36.647Z,6.15
2023-07-15T11:37:44.749Z,7.57
2023-07-15T11:38:46.317Z,6.25
2023-07-15T11:39:47.878Z,6.50
2023-07-15T11:40:53.873Z,6.15
2023-07-15T11:41:55.603Z,6.05
2023-07-15T11:42:58.049Z,6.60
2023-07-15T11:43:59.750Z,5.78
2023-07-15T11:45:01.428Z,6.60
2023-07-15T11:46:03.283Z,7.00
2023-07-15T11:47:07.002Z,6.40
2023-07-15T11:48:09.056Z,6.97
2023-07-15T11:49:11.157Z,6.47
2023-07-15T11:50:13.143Z,6.40
2023-07-15T11:51:14.781Z,6.68
2023-07-15T11:52:19.743Z,5.30
2023-07-15T11:53:31.364Z,6.70
2023-07-15T11:54:33.022Z,6.38
2023-07-15T11:55:38.684Z,6.70
2023-07-15T11:56:41.142Z,6.30
2023-07-15T11:57:43.323Z,5.75
2023-07-15T11:58:47.875Z,5.93
2023-07-15T11:59:50.664Z,6.68
2023-07-15T12:00:53.047Z,5.88
2023-07-15T12:01:57.701Z,5.80
2023-07-15T12:02:59.833Z,5.43
2023-07-15T12:04:01.659Z,6.47
2023-07-15T12:05:03.451Z,6.07
2023-07-15T12:06:12.573Z,5.40
2023-07-15T12:07:14.342Z,5.80
2023-07-15T12:08:16.066Z,5.65
2023-07-15T12:09:18.104Z,5.60
2023-07-15T12:10:20.629Z,5.35
2023-07-15T12:11:22.208Z,6.43
2023-07-15T12:12:24.050Z,5.57
2023-07-15T12:13:26.111Z,5.60
2023-07-15T12:14:27.707Z,5.27
2023-07-15T12:15:29.412Z,5.35
2023-07-15T12:16:32.048Z,7.47
2023-07-15T12:17:33.896Z,5.65
2023-07-15T12:18:38.235Z,6.25
2023-07-15T12:19:39.799Z,5.53
2023-07-15T12:20:41.319Z,5.60
2023-07-15T12:21:42.828Z,5.45
2023-07-15T12:22:44.692Z,5.85
2023-07-15T12:23:46.466Z,6.90
2023-07-15T12:24:48.725Z,6.37
2023-07-15T12:25:50.460Z,6.70
2023-07-15T12:26:52.032Z,7.55
2023-07-15T12:27:53.710Z,6.65
2023-07-15T12:28:55.405Z,7.32
2023-07-15T12:30:02.363Z,7.22
2023-07-15T12:31:06.399Z,6.10
2023-07-15T12:32:08.496Z,6.65
2023-07-15T12:33:10.257Z,6.55
2023-07-15T12:34:11.801Z,6.88
2023-07-15T12:35:15.289Z,6.33
2023-07-15T12:36:18.797Z,6.18
2023-07-15T12:37:20.613Z,6.38
2023-07-15T12:38:22.400Z,7.15
2023-07-15T12:39:24.209Z,6.55
2023-07-15T12:40:26.310Z,6.13
2023-07-15T12:41:28.026Z,6.65
2023-07-15T12:42:29.674Z,6.18
2023-07-15T12:43:31.500Z,6.53
2023-07-15T12:44:33.193Z,5.93
2023-07-15T12:45:34.833Z,6.73
2023-07-15T12:46:36.538Z,6.22
2023-07-15T12:47:38.262Z,6.60
2023-07-15T12:48:40.146Z,6.05
2023-07-15T12:49:41.967Z,5.97
2023-07-15T12:50:43.785Z,6.43
2023-07-15T12:51:45.540Z,5.68
2023-07-15T12:52:47.266Z,6.40
2023-07-15T12:53:48.965Z,7.43
2023-07-15T12:54:50.804Z,7.30
2023-07-15T12:55:53.136Z,7.03
2023-07-15T12:56:54.852Z,6.88
2023-07-15T12:57:56.581Z,6.88
2023-07-15T12:58:58.198Z,6.78
2023-07-15T12:59:59.949Z,6.60
2023-07-15T13:01:01.685Z,6.15
2023-07-15T13:02:03.531Z,7.10
2023-07-15T13:03:05.406Z,6.60
2023-07-15T13:04:07.191Z,7.15
2023-07-15T13:05:09.146Z,6.32
2023-07-15T13:06:11.050Z,6.87
2023-07-15T13:07:12.731Z,6.82
2023-07-15T13:08:14.237Z,7.50
2023-07-15T13:09:15.864Z,6.97
2023-07-15T13:10:17.528Z,6.85
2023-07-15T13:11:21.836Z,6.63
2023-07-15T13:12:23.424Z,7.13
2023-07-15T13:13:25.047Z,7.18
2023-07-15T13:14:26.713Z,6.80
2023-07-15T13:15:28.671Z,5.97
2023-07-15T13:16:31.067Z,7.00
2023-07-15T13:17:33.079Z,7.00
2023-07-15T13:18:34.826Z,6.95
2023-07-15T13:19:36.690Z,6.53
2023-07-15T13:20:38.545Z,6.70
2023-07-15T13:21:41.001Z,6.72
2023-07-15T13:22:42.860Z,7.10
2023-07-15T13:23:44.611Z,6.65
2023-07-15T13:24:46.287Z,6.80
2023-07-15T13:25:48.231Z,6.90
2023-07-15T13:26:49.891Z,6.30
2023-07-15T13:27:51.572Z,6.32
2023-07-15T13:28:53.223Z,6.90
2023-07-15T13:29:54.916Z,6.43
2023-07-15T13:30:56.588Z,7.93
2023-07-15T13:31:58.193Z,7.00
2023-07-15T13:32:59.941Z,7.85
2023-07-15T13:34:01.550Z,7.65
2023-07-15T13:35:03.426Z,7.05
2023-07-15T13:36:05.133Z,7.72
2023-07-15T13:37:06.897Z,7.77
2023-07-15T13:38:08.551Z,7.20
2023-07-15T13:39:30.243Z,7.78
2023-07-15T13:40:31.840Z,6.93
2023-07-15T13:41:33.564Z,6.90
2023-07-15T13:42:35.138Z,6.53
2023-07-15T13:43:36.851Z,6.80
2023-07-15T13:44:38.864Z,7.10
2023-07-15T13:45:40.599Z,6.80
2023-07-15T13:46:42.211Z,6.80
2023-07-15T13:47:43.931Z,6.30
2023-07-15T13:48:47.229Z,6.05
2023-07-15T13:49:50.805Z,6.50
2023-07-15T13:50:52.387Z,6.43
2023-07-15T13:51:58.551Z,6.90
2023-07-15T13:53:00.384Z,6.28
2023-07-15T13:54:02.334Z,6.32
2023-07-15T13:55:04.403Z,6.53
2023-07-15T13:56:06.065Z,6.32
2023-07-15T13:57:07.869Z,6.10
2023-07-15T13:58:09.500Z,6.07
2023-07-15T13:59:11.429Z,5.82
2023-07-15T14:00:14.577Z,6.10
2023-07-15T14:01:17.146Z,7.38
2023-07-15T14:02:19.321Z,7.07
2023-07-15T14:03:20.923Z,6.38
2023-07-15T14:04:22.708Z,7.15
2023-07-15T14:05:24.432Z,6.40
2023-07-15T14:06:25.999Z,6.88
2023-07-15T14:07:27.729Z,6.63
2023-07-15T14:08:29.361Z,7.13
2023-07-15T14:09:31.014Z,6.35
2023-07-15T14:10:32.743Z,7.03
2023-07-15T14:11:34.685Z,6.40
2023-07-15T14:12:36.193Z,6.45
2023-07-15T14:13:37.748Z,6.20
2023-07-15T14:14:39.574Z,6.38
2023-07-15T14:15:41.982Z,5.95
2023-07-15T14:16:44.463Z,5.95
2023-07-15T14:17:46.902Z,6.18
2023-07-15T14:18:48.892Z,6.63
2023-07-15T14:19:52.813Z,5.72
2023-07-15T14:20:56.551Z,6.50
2023-07-15T14:22:13.521Z,6.55
2023-07-15T14:23:16.807Z,6.70
2023-07-15T14:24:18.522Z,5.95
2023-07-15T14:25:20.473Z,6.30
2023-07-15T14:26:22.319Z,6.22
2023-07-15T14:27:24.505Z,7.72
2023-07-15T14:28:26.756Z,6.20
2023-07-15T14:29:28.962Z,7.07
2023-07-15T14:30:31.204Z,6.25
2023-07-15T14:31:33.158Z,6.10
2023-07-15T14:32:34.796Z,6.65